sensor_id;sensor_type;location;lat;lon;timestamp;P1;durP1;ratioP1;P2;durP2;ratioP2
60919;SDS011;59039;52.108;19.942;2022-10-30T00:00:20;40.90;;;24.70;;
60919;SDS011;59039;52.108;19.942;2022-10-30T00:02:46;41.60;;;23.30;;
60919;SDS011;59039;52.108;19.942;2022-10-30T00:05:12;43.90;;;24.10;;
60919;SDS011;59039;52.108;19.942;2022-10-30T00:07:38;44.20;;;25.40;;
60919;SDS011;59039;52.108;19.942;2022-10-30T00:10:03;41.60;;;23.30;;
60919;SDS011;59039;52.108;19.942;2022-10-30T00:12:28;43.30;;;24.90;;
60919;SDS011;59039;52.108;19.942;2022-10-30T00:14:54;39.30;;;23.70;;
60919;SDS011;59039;52.108;19.942;2022-10-30T00:17:19;45.90;;;26.80;;
60919;SDS011;59039;52.108;19.942;2022-10-30T00:19:44;49.90;;;28.60;;
60919;SDS011;59039;52.108;19.942;2022-10-30T00:22:10;44.90;;;26.50;;
60919;SDS011;59039;52.108;19.942;2022-10-30T00:24:35;46.70;;;25.50;;
60919;SDS011;59039;52.108;19.942;2022-10-30T00:27:00;42.90;;;25.90;;
60919;SDS011;59039;52.108;19.942;2022-10-30T00:29:26;50.70;;;28.60;;
60919;SDS011;59039;52.108;19.942;2022-10-30T00:31:51;50.50;;;28.30;;
60919;SDS011;59039;52.108;19.942;2022-10-30T00:34:17;52.30;;;29.40;;
60919;SDS011;59039;52.108;19.942;2022-10-30T00:36:42;42.60;;;26.40;;
60919;SDS011;59039;52.108;19.942;2022-10-30T00:39:08;47.70;;;27.30;;
60919;SDS011;59039;52.108;19.942;2022-10-30T00:41:33;41.50;;;25.30;;
60919;SDS011;59039;52.108;19.942;2022-10-30T00:43:58;46.90;;;28.80;;
60919;SDS011;59039;52.108;19.942;2022-10-30T00:46:34;42.00;;;27.10;;
60919;SDS011;59039;52.108;19.942;2022-10-30T00:51:36;47.60;;;28.70;;
60919;SDS011;59039;52.108;19.942;2022-10-30T00:54:05;49.30;;;29.60;;
60919;SDS011;59039;52.108;19.942;2022-10-30T00:56:31;55.50;;;30.20;;
60919;SDS011;59039;52.108;19.942;2022-10-30T00:58:59;51.30;;;29.00;;
60919;SDS011;59039;52.108;19.942;2022-10-30T01:01:30;56.10;;;28.60;;
60919;SDS011;59039;52.108;19.942;2022-10-30T01:03:59;47.70;;;29.10;;
60919;SDS011;59039;52.108;19.942;2022-10-30T01:06:27;47.40;;;27.00;;
60919;SDS011;59039;52.108;19.942;2022-10-30T01:08:56;46.40;;;26.20;;
60919;SDS011;59039;52.108;19.942;2022-10-30T01:11:21;49.00;;;28.10;;
60919;SDS011;59039;52.108;19.942;2022-10-30T01:13:47;45.90;;;25.90;;
60919;SDS011;59039;52.108;19.942;2022-10-30T01:16:28;46.90;;;24.60;;
60919;SDS011;59039;52.108;19.942;2022-10-30T01:22:06;41.40;;;24.00;;
60919;SDS011;59039;52.108;19.942;2022-10-30T01:24:41;44.40;;;23.50;;
60919;SDS011;59039;52.108;19.942;2022-10-30T01:38:31;39.10;;;21.60;;
60919;SDS011;59039;52.108;19.942;2022-10-30T01:41:03;41.70;;;22.70;;
60919;SDS011;59039;52.108;19.942;2022-10-30T01:43:28;40.50;;;21.50;;
60919;SDS011;59039;52.108;19.942;2022-10-30T01:51:41;45.00;;;23.40;;
60919;SDS011;59039;52.108;19.942;2022-10-30T01:59:49;41.20;;;23.70;;
60919;SDS011;59039;52.108;19.942;2022-10-30T02:02:18;40.70;;;23.70;;
60919;SDS011;59039;52.108;19.942;2022-10-30T02:04:44;42.60;;;24.30;;
60919;SDS011;59039;52.108;19.942;2022-10-30T02:07:10;41.40;;;22.90;;
60919;SDS011;59039;52.108;19.942;2022-10-30T02:09:35;41.90;;;22.60;;
60919;SDS011;59039;52.108;19.942;2022-10-30T02:12:01;43.80;;;23.60;;
60919;SDS011;59039;52.108;19.942;2022-10-30T02:14:27;42.90;;;22.70;;
60919;SDS011;59039;52.108;19.942;2022-10-30T02:16:57;37.10;;;21.80;;
60919;SDS011;59039;52.108;19.942;2022-10-30T02:19:25;42.90;;;21.90;;
60919;SDS011;59039;52.108;19.942;2022-10-30T02:21:50;39.20;;;22.00;;
60919;SDS011;59039;52.108;19.942;2022-10-30T02:24:16;39.60;;;21.70;;
60919;SDS011;59039;52.108;19.942;2022-10-30T02:26:41;36.50;;;20.90;;
60919;SDS011;59039;52.108;19.942;2022-10-30T02:29:06;48.50;;;22.40;;
60919;SDS011;59039;52.108;19.942;2022-10-30T02:31:31;42.50;;;21.60;;
60919;SDS011;59039;52.108;19.942;2022-10-30T02:33:57;43.90;;;22.30;;
60919;SDS011;59039;52.108;19.942;2022-10-30T02:36:22;38.20;;;21.60;;
60919;SDS011;59039;52.108;19.942;2022-10-30T02:38:47;43.10;;;22.70;;
60919;SDS011;59039;52.108;19.942;2022-10-30T02:41:12;40.60;;;22.30;;
60919;SDS011;59039;52.108;19.942;2022-10-30T02:43:37;42.20;;;21.40;;
60919;SDS011;59039;52.108;19.942;2022-10-30T02:46:03;40.60;;;21.80;;
60919;SDS011;59039;52.108;19.942;2022-10-30T02:48:31;42.20;;;21.70;;
60919;SDS011;59039;52.108;19.942;2022-10-30T02:51:00;37.50;;;21.70;;
60919;SDS011;59039;52.108;19.942;2022-10-30T02:53:26;36.90;;;21.80;;
60919;SDS011;59039;52.108;19.942;2022-10-30T02:55:51;43.50;;;22.40;;
60919;SDS011;59039;52.108;19.942;2022-10-30T02:58:16;37.90;;;22.90;;
60919;SDS011;59039;52.108;19.942;2022-10-30T03:00:41;39.90;;;22.10;;
60919;SDS011;59039;52.108;19.942;2022-10-30T03:03:07;40.10;;;21.70;;
60919;SDS011;59039;52.108;19.942;2022-10-30T03:05:32;43.50;;;23.80;;
60919;SDS011;59039;52.108;19.942;2022-10-30T03:07:57;45.60;;;24.20;;
60919;SDS011;59039;52.108;19.942;2022-10-30T03:10:22;40.00;;;21.70;;
60919;SDS011;59039;52.108;19.942;2022-10-30T03:12:47;38.30;;;22.80;;
60919;SDS011;59039;52.108;19.942;2022-10-30T03:15:12;37.10;;;20.20;;
60919;SDS011;59039;52.108;19.942;2022-10-30T03:17:38;37.40;;;22.20;;
60919;SDS011;59039;52.108;19.942;2022-10-30T03:20:03;38.20;;;21.60;;
60919;SDS011;59039;52.108;19.942;2022-10-30T03:22:28;35.60;;;21.60;;
60919;SDS011;59039;52.108;19.942;2022-10-30T03:24:54;38.60;;;21.80;;
60919;SDS011;59039;52.108;19.942;2022-10-30T03:27:19;40.80;;;23.10;;
60919;SDS011;59039;52.108;19.942;2022-10-30T03:29:44;46.80;;;24.00;;
60919;SDS011;59039;52.108;19.942;2022-10-30T03:32:10;42.50;;;22.30;;
60919;SDS011;59039;52.108;19.942;2022-10-30T03:34:35;31.90;;;20.90;;
60919;SDS011;59039;52.108;19.942;2022-10-30T03:37:01;44.00;;;24.60;;
60919;SDS011;59039;52.108;19.942;2022-10-30T03:39:26;43.40;;;23.00;;
60919;SDS011;59039;52.108;19.942;2022-10-30T03:41:51;40.60;;;24.30;;
60919;SDS011;59039;52.108;19.942;2022-10-30T03:44:17;40.60;;;24.60;;
60919;SDS011;59039;52.108;19.942;2022-10-30T03:46:42;44.10;;;23.30;;
60919;SDS011;59039;52.108;19.942;2022-10-30T03:49:07;38.20;;;22.20;;
60919;SDS011;59039;52.108;19.942;2022-10-30T03:51:32;39.40;;;22.10;;
60919;SDS011;59039;52.108;19.942;2022-10-30T03:53:57;41.20;;;23.50;;
60919;SDS011;59039;52.108;19.942;2022-10-30T03:56:23;39.50;;;22.00;;
60919;SDS011;59039;52.108;19.942;2022-10-30T03:58:48;41.30;;;22.60;;
60919;SDS011;59039;52.108;19.942;2022-10-30T04:01:13;39.60;;;24.30;;
60919;SDS011;59039;52.108;19.942;2022-10-30T04:03:38;40.90;;;23.60;;
60919;SDS011;59039;52.108;19.942;2022-10-30T04:06:04;34.40;;;21.20;;
60919;SDS011;59039;52.108;19.942;2022-10-30T04:08:29;37.70;;;20.90;;
60919;SDS011;59039;52.108;19.942;2022-10-30T04:10:54;36.60;;;22.40;;
60919;SDS011;59039;52.108;19.942;2022-10-30T04:13:19;41.40;;;22.80;;
60919;SDS011;59039;52.108;19.942;2022-10-30T04:15:46;44.10;;;23.70;;
60919;SDS011;59039;52.108;19.942;2022-10-30T04:18:12;39.50;;;23.60;;
60919;SDS011;59039;52.108;19.942;2022-10-30T04:20:38;43.80;;;23.90;;
60919;SDS011;59039;52.108;19.942;2022-10-30T04:23:04;42.50;;;22.30;;
60919;SDS011;59039;52.108;19.942;2022-10-30T04:25:32;36.10;;;22.10;;
60919;SDS011;59039;52.108;19.942;2022-10-30T04:27:58;34.60;;;19.70;;
60919;SDS011;59039;52.108;19.942;2022-10-30T04:30:24;32.70;;;20.20;;
60919;SDS011;59039;52.108;19.942;2022-10-30T04:32:50;32.20;;;18.30;;
60919;SDS011;59039;52.108;19.942;2022-10-30T04:35:18;34.60;;;19.10;;
60919;SDS011;59039;52.108;19.942;2022-10-30T04:38:18;31.50;;;18.70;;
60919;SDS011;59039;52.108;19.942;2022-10-30T04:40:40;34.10;;;18.00;;
60919;SDS011;59039;52.108;19.942;2022-10-30T04:43:07;32.70;;;19.30;;
60919;SDS011;59039;52.108;19.942;2022-10-30T04:45:33;32.10;;;17.60;;
60919;SDS011;59039;52.108;19.942;2022-10-30T04:48:03;34.50;;;20.50;;
60919;SDS011;59039;52.108;19.942;2022-10-30T04:50:31;33.80;;;19.50;;
60919;SDS011;59039;52.108;19.942;2022-10-30T04:52:58;39.60;;;21.40;;
60919;SDS011;59039;52.108;19.942;2022-10-30T04:55:24;43.60;;;22.50;;
60919;SDS011;59039;52.108;19.942;2022-10-30T04:57:53;42.00;;;22.80;;
60919;SDS011;59039;52.108;19.942;2022-10-30T05:00:19;37.00;;;21.40;;
60919;SDS011;59039;52.108;19.942;2022-10-30T05:02:45;40.70;;;21.60;;
60919;SDS011;59039;52.108;19.942;2022-10-30T05:05:10;39.00;;;21.80;;
60919;SDS011;59039;52.108;19.942;2022-10-30T05:07:35;37.20;;;21.50;;
60919;SDS011;59039;52.108;19.942;2022-10-30T05:10:00;36.80;;;22.20;;
60919;SDS011;59039;52.108;19.942;2022-10-30T05:12:25;38.60;;;22.40;;
60919;SDS011;59039;52.108;19.942;2022-10-30T05:14:50;42.90;;;23.30;;
60919;SDS011;59039;52.108;19.942;2022-10-30T05:17:16;41.80;;;21.60;;
60919;SDS011;59039;52.108;19.942;2022-10-30T05:19:41;42.50;;;21.30;;
60919;SDS011;59039;52.108;19.942;2022-10-30T05:22:06;39.40;;;21.30;;
60919;SDS011;59039;52.108;19.942;2022-10-30T05:24:31;30.70;;;19.90;;
60919;SDS011;59039;52.108;19.942;2022-10-30T05:26:56;34.10;;;19.70;;
60919;SDS011;59039;52.108;19.942;2022-10-30T05:29:21;35.60;;;21.30;;
60919;SDS011;59039;52.108;19.942;2022-10-30T05:31:47;35.30;;;18.70;;
60919;SDS011;59039;52.108;19.942;2022-10-30T05:34:12;32.90;;;18.90;;
60919;SDS011;59039;52.108;19.942;2022-10-30T05:36:37;29.10;;;17.10;;
60919;SDS011;59039;52.108;19.942;2022-10-30T05:39:02;30.70;;;18.20;;
60919;SDS011;59039;52.108;19.942;2022-10-30T05:41:28;28.90;;;17.50;;
60919;SDS011;59039;52.108;19.942;2022-10-30T05:43:53;30.00;;;18.20;;
60919;SDS011;59039;52.108;19.942;2022-10-30T05:46:19;32.00;;;18.80;;
60919;SDS011;59039;52.108;19.942;2022-10-30T05:48:44;28.60;;;17.50;;
60919;SDS011;59039;52.108;19.942;2022-10-30T05:51:09;31.90;;;18.20;;
60919;SDS011;59039;52.108;19.942;2022-10-30T05:53:34;36.20;;;19.40;;
60919;SDS011;59039;52.108;19.942;2022-10-30T05:55:59;33.90;;;20.20;;
60919;SDS011;59039;52.108;19.942;2022-10-30T05:58:25;38.80;;;21.20;;
60919;SDS011;59039;52.108;19.942;2022-10-30T06:00:50;33.90;;;19.40;;
60919;SDS011;59039;52.108;19.942;2022-10-30T06:03:16;31.00;;;18.90;;
60919;SDS011;59039;52.108;19.942;2022-10-30T06:05:43;32.30;;;18.50;;
60919;SDS011;59039;52.108;19.942;2022-10-30T06:08:09;31.10;;;19.20;;
60919;SDS011;59039;52.108;19.942;2022-10-30T06:10:34;34.50;;;20.00;;
60919;SDS011;59039;52.108;19.942;2022-10-30T06:13:00;34.90;;;19.90;;
60919;SDS011;59039;52.108;19.942;2022-10-30T06:15:27;38.10;;;22.40;;
60919;SDS011;59039;52.108;19.942;2022-10-30T06:17:54;37.10;;;22.60;;
60919;SDS011;59039;52.108;19.942;2022-10-30T06:20:20;31.30;;;21.00;;
60919;SDS011;59039;52.108;19.942;2022-10-30T06:23:01;33.20;;;20.40;;
60919;SDS011;59039;52.108;19.942;2022-10-30T06:25:29;32.40;;;19.30;;
60919;SDS011;59039;52.108;19.942;2022-10-30T06:27:55;35.40;;;20.80;;
60919;SDS011;59039;52.108;19.942;2022-10-30T06:30:21;44.20;;;24.20;;
60919;SDS011;59039;52.108;19.942;2022-10-30T06:32:46;44.90;;;25.20;;
60919;SDS011;59039;52.108;19.942;2022-10-30T06:35:12;40.20;;;23.90;;
60919;SDS011;59039;52.108;19.942;2022-10-30T06:37:43;39.60;;;22.80;;
60919;SDS011;59039;52.108;19.942;2022-10-30T06:40:10;35.00;;;21.40;;
60919;SDS011;59039;52.108;19.942;2022-10-30T06:42:45;43.20;;;24.30;;
60919;SDS011;59039;52.108;19.942;2022-10-30T06:45:12;43.00;;;26.00;;
60919;SDS011;59039;52.108;19.942;2022-10-30T06:47:39;45.50;;;28.90;;
60919;SDS011;59039;52.108;19.942;2022-10-30T06:50:05;55.20;;;30.90;;
60919;SDS011;59039;52.108;19.942;2022-10-30T06:52:31;49.00;;;29.00;;
60919;SDS011;59039;52.108;19.942;2022-10-30T06:54:57;49.50;;;26.40;;
60919;SDS011;59039;52.108;19.942;2022-10-30T06:57:22;36.20;;;22.70;;
60919;SDS011;59039;52.108;19.942;2022-10-30T06:59:47;45.70;;;24.20;;
60919;SDS011;59039;52.108;19.942;2022-10-30T07:02:13;40.60;;;24.90;;
60919;SDS011;59039;52.108;19.942;2022-10-30T07:04:38;46.20;;;26.40;;
60919;SDS011;59039;52.108;19.942;2022-10-30T07:07:03;53.00;;;29.20;;
60919;SDS011;59039;52.108;19.942;2022-10-30T07:09:28;48.70;;;28.00;;
60919;SDS011;59039;52.108;19.942;2022-10-30T07:11:53;45.70;;;25.30;;
60919;SDS011;59039;52.108;19.942;2022-10-30T07:14:19;41.10;;;24.40;;
60919;SDS011;59039;52.108;19.942;2022-10-30T07:16:44;39.70;;;25.80;;
60919;SDS011;59039;52.108;19.942;2022-10-30T07:19:09;35.20;;;22.60;;
60919;SDS011;59039;52.108;19.942;2022-10-30T07:21:34;44.30;;;22.90;;
60919;SDS011;59039;52.108;19.942;2022-10-30T07:23:59;36.70;;;20.70;;
60919;SDS011;59039;52.108;19.942;2022-10-30T07:26:24;35.90;;;23.60;;
60919;SDS011;59039;52.108;19.942;2022-10-30T07:28:50;38.30;;;22.20;;
60919;SDS011;59039;52.108;19.942;2022-10-30T07:31:16;38.80;;;21.60;;
60919;SDS011;59039;52.108;19.942;2022-10-30T07:33:41;37.50;;;20.60;;
60919;SDS011;59039;52.108;19.942;2022-10-30T07:36:06;35.70;;;20.70;;
60919;SDS011;59039;52.108;19.942;2022-10-30T07:38:32;41.80;;;23.50;;
60919;SDS011;59039;52.108;19.942;2022-10-30T07:40:57;44.20;;;25.30;;
60919;SDS011;59039;52.108;19.942;2022-10-30T07:43:22;37.60;;;22.40;;
60919;SDS011;59039;52.108;19.942;2022-10-30T07:45:47;38.50;;;22.10;;
60919;SDS011;59039;52.108;19.942;2022-10-30T07:48:13;39.30;;;24.20;;
60919;SDS011;59039;52.108;19.942;2022-10-30T07:50:38;44.30;;;26.80;;
60919;SDS011;59039;52.108;19.942;2022-10-30T07:53:03;46.10;;;26.60;;
60919;SDS011;59039;52.108;19.942;2022-10-30T07:55:28;44.00;;;25.30;;
60919;SDS011;59039;52.108;19.942;2022-10-30T07:57:53;46.70;;;23.70;;
60919;SDS011;59039;52.108;19.942;2022-10-30T08:00:18;41.70;;;23.90;;
60919;SDS011;59039;52.108;19.942;2022-10-30T08:02:47;30.30;;;18.50;;
60919;SDS011;59039;52.108;19.942;2022-10-30T08:05:13;27.10;;;18.10;;
60919;SDS011;59039;52.108;19.942;2022-10-30T08:07:39;26.80;;;17.00;;
60919;SDS011;59039;52.108;19.942;2022-10-30T08:10:04;30.00;;;16.30;;
60919;SDS011;59039;52.108;19.942;2022-10-30T08:12:31;27.30;;;16.50;;
60919;SDS011;59039;52.108;19.942;2022-10-30T08:14:57;29.10;;;17.10;;
60919;SDS011;59039;52.108;19.942;2022-10-30T08:17:22;27.90;;;16.20;;
60919;SDS011;59039;52.108;19.942;2022-10-30T08:19:47;36.80;;;20.30;;
60919;SDS011;59039;52.108;19.942;2022-10-30T08:22:12;38.40;;;21.50;;
60919;SDS011;59039;52.108;19.942;2022-10-30T08:24:38;36.30;;;21.40;;
60919;SDS011;59039;52.108;19.942;2022-10-30T08:27:03;58.40;;;32.20;;
60919;SDS011;59039;52.108;19.942;2022-10-30T08:29:29;42.90;;;26.00;;
60919;SDS011;59039;52.108;19.942;2022-10-30T08:31:55;36.10;;;22.10;;
60919;SDS011;59039;52.108;19.942;2022-10-30T08:34:20;32.80;;;18.80;;
60919;SDS011;59039;52.108;19.942;2022-10-30T08:36:49;24.30;;;15.80;;
60919;SDS011;59039;52.108;19.942;2022-10-30T08:39:18;22.50;;;14.10;;
60919;SDS011;59039;52.108;19.942;2022-10-30T08:41:44;34.30;;;18.80;;
60919;SDS011;59039;52.108;19.942;2022-10-30T08:44:10;25.90;;;15.30;;
60919;SDS011;59039;52.108;19.942;2022-10-30T08:46:35;26.00;;;15.30;;
60919;SDS011;59039;52.108;19.942;2022-10-30T08:49:00;25.20;;;14.10;;
60919;SDS011;59039;52.108;19.942;2022-10-30T08:51:26;24.20;;;15.40;;
60919;SDS011;59039;52.108;19.942;2022-10-30T08:53:56;16.80;;;9.50;;
60919;SDS011;59039;52.108;19.942;2022-10-30T08:56:21;15.10;;;7.40;;
60919;SDS011;59039;52.108;19.942;2022-10-30T08:58:46;17.80;;;9.20;;
60919;SDS011;59039;52.108;19.942;2022-10-30T09:01:11;15.80;;;10.10;;
60919;SDS011;59039;52.108;19.942;2022-10-30T09:03:36;13.10;;;8.30;;
60919;SDS011;59039;52.108;19.942;2022-10-30T09:06:02;20.50;;;10.90;;
60919;SDS011;59039;52.108;19.942;2022-10-30T09:08:27;22.40;;;12.50;;
60919;SDS011;59039;52.108;19.942;2022-10-30T09:10:53;28.10;;;15.20;;
60919;SDS011;59039;52.108;19.942;2022-10-30T09:13:19;32.30;;;14.70;;
60919;SDS011;59039;52.108;19.942;2022-10-30T09:15:44;19.30;;;10.50;;
60919;SDS011;59039;52.108;19.942;2022-10-30T09:18:09;17.40;;;8.80;;
60919;SDS011;59039;52.108;19.942;2022-10-30T09:20:34;15.10;;;8.40;;
60919;SDS011;59039;52.108;19.942;2022-10-30T09:23:00;15.10;;;8.70;;
60919;SDS011;59039;52.108;19.942;2022-10-30T09:25:27;14.80;;;7.30;;
60919;SDS011;59039;52.108;19.942;2022-10-30T09:27:52;16.60;;;10.10;;
60919;SDS011;59039;52.108;19.942;2022-10-30T09:30:18;14.40;;;8.80;;
60919;SDS011;59039;52.108;19.942;2022-10-30T09:32:43;10.20;;;6.60;;
60919;SDS011;59039;52.108;19.942;2022-10-30T09:35:08;11.50;;;7.10;;
60919;SDS011;59039;52.108;19.942;2022-10-30T09:37:34;9.80;;;6.20;;
60919;SDS011;59039;52.108;19.942;2022-10-30T09:40:04;12.10;;;6.20;;
60919;SDS011;59039;52.108;19.942;2022-10-30T09:51:16;28.80;;;15.60;;
60919;SDS011;59039;52.108;19.942;2022-10-30T09:56:18;28.50;;;17.10;;
60919;SDS011;59039;52.108;19.942;2022-10-30T09:59:04;21.60;;;12.20;;
60919;SDS011;59039;52.108;19.942;2022-10-30T10:01:39;32.50;;;15.30;;
60919;SDS011;59039;52.108;19.942;2022-10-30T10:06:55;30.30;;;14.50;;
60919;SDS011;59039;52.108;19.942;2022-10-30T10:09:25;16.50;;;8.90;;
60919;SDS011;59039;52.108;19.942;2022-10-30T10:11:58;31.00;;;16.60;;
60919;SDS011;59039;52.108;19.942;2022-10-30T10:14:39;37.90;;;19.40;;
60919;SDS011;59039;52.108;19.942;2022-10-30T10:17:15;29.20;;;14.60;;
60919;SDS011;59039;52.108;19.942;2022-10-30T10:19:49;30.60;;;17.10;;
60919;SDS011;59039;52.108;19.942;2022-10-30T10:22:20;36.30;;;18.90;;
60919;SDS011;59039;52.108;19.942;2022-10-30T10:24:49;37.90;;;18.90;;
60919;SDS011;59039;52.108;19.942;2022-10-30T10:27:26;39.40;;;20.30;;
60919;SDS011;59039;52.108;19.942;2022-10-30T10:35:36;27.80;;;15.60;;
60919;SDS011;59039;52.108;19.942;2022-10-30T10:38:35;28.70;;;15.30;;
60919;SDS011;59039;52.108;19.942;2022-10-30T10:41:23;31.30;;;16.70;;
60919;SDS011;59039;52.108;19.942;2022-10-30T10:49:23;20.80;;;12.40;;
60919;SDS011;59039;52.108;19.942;2022-10-30T10:51:58;19.10;;;11.60;;
60919;SDS011;59039;52.108;19.942;2022-10-30T10:54:44;20.10;;;10.90;;
60919;SDS011;59039;52.108;19.942;2022-10-30T10:57:24;19.60;;;10.60;;
60919;SDS011;59039;52.108;19.942;2022-10-30T10:59:59;25.70;;;14.80;;
60919;SDS011;59039;52.108;19.942;2022-10-30T11:02:31;19.70;;;12.80;;
60919;SDS011;59039;52.108;19.942;2022-10-30T11:08:00;14.90;;;10.40;;
60919;SDS011;59039;52.108;19.942;2022-10-30T11:10:34;18.30;;;10.10;;
60919;SDS011;59039;52.108;19.942;2022-10-30T11:12:59;18.20;;;9.30;;
60919;SDS011;59039;52.108;19.942;2022-10-30T11:15:28;21.80;;;11.00;;
60919;SDS011;59039;52.108;19.942;2022-10-30T11:18:07;18.50;;;9.50;;
60919;SDS011;59039;52.108;19.942;2022-10-30T11:20:41;19.10;;;8.60;;
60919;SDS011;59039;52.108;19.942;2022-10-30T11:26:01;12.40;;;7.20;;
60919;SDS011;59039;52.108;19.942;2022-10-30T11:28:38;16.90;;;9.40;;
60919;SDS011;59039;52.108;19.942;2022-10-30T11:36:42;15.10;;;8.30;;
60919;SDS011;59039;52.108;19.942;2022-10-30T11:39:24;20.30;;;11.20;;
60919;SDS011;59039;52.108;19.942;2022-10-30T11:45:02;22.40;;;12.00;;
60919;SDS011;59039;52.108;19.942;2022-10-30T11:47:27;23.00;;;11.70;;
60919;SDS011;59039;52.108;19.942;2022-10-30T11:49:58;17.60;;;10.70;;
60919;SDS011;59039;52.108;19.942;2022-10-30T11:52:25;18.40;;;11.30;;
60919;SDS011;59039;52.108;19.942;2022-10-30T11:57:42;20.70;;;10.70;;
60919;SDS011;59039;52.108;19.942;2022-10-30T12:00:20;17.50;;;10.70;;
60919;SDS011;59039;52.108;19.942;2022-10-30T12:02:48;20.20;;;11.50;;
60919;SDS011;59039;52.108;19.942;2022-10-30T12:10:31;24.90;;;13.50;;
60919;SDS011;59039;52.108;19.942;2022-10-30T12:13:03;25.40;;;11.30;;
60919;SDS011;59039;52.108;19.942;2022-10-30T12:15:29;20.30;;;11.60;;
60919;SDS011;59039;52.108;19.942;2022-10-30T12:18:01;24.20;;;12.10;;
60919;SDS011;59039;52.108;19.942;2022-10-30T12:20:29;22.70;;;11.20;;
60919;SDS011;59039;52.108;19.942;2022-10-30T12:22:54;21.30;;;10.40;;
60919;SDS011;59039;52.108;19.942;2022-10-30T12:25:29;16.10;;;9.10;;
60919;SDS011;59039;52.108;19.942;2022-10-30T12:27:59;16.90;;;10.30;;
60919;SDS011;59039;52.108;19.942;2022-10-30T12:30:30;18.40;;;9.40;;
60919;SDS011;59039;52.108;19.942;2022-10-30T12:35:34;16.20;;;10.50;;
60919;SDS011;59039;52.108;19.942;2022-10-30T12:38:11;17.80;;;10.10;;
60919;SDS011;59039;52.108;19.942;2022-10-30T12:40:42;16.20;;;9.30;;
60919;SDS011;59039;52.108;19.942;2022-10-30T12:43:23;20.20;;;10.30;;
60919;SDS011;59039;52.108;19.942;2022-10-30T12:45:51;21.80;;;11.30;;
60919;SDS011;59039;52.108;19.942;2022-10-30T12:53:47;19.30;;;11.50;;
60919;SDS011;59039;52.108;19.942;2022-10-30T12:56:20;20.00;;;11.40;;
60919;SDS011;59039;52.108;19.942;2022-10-30T12:58:56;23.60;;;13.30;;
60919;SDS011;59039;52.108;19.942;2022-10-30T13:01:34;22.90;;;11.40;;
60919;SDS011;59039;52.108;19.942;2022-10-30T13:04:16;21.40;;;11.60;;
60919;SDS011;59039;52.108;19.942;2022-10-30T13:06:59;24.30;;;13.10;;
60919;SDS011;59039;52.108;19.942;2022-10-30T13:09:37;21.40;;;10.70;;
60919;SDS011;59039;52.108;19.942;2022-10-30T13:14:40;19.00;;;10.60;;
60919;SDS011;59039;52.108;19.942;2022-10-30T13:17:13;23.90;;;12.30;;
60919;SDS011;59039;52.108;19.942;2022-10-30T13:19:40;24.90;;;13.00;;
60919;SDS011;59039;52.108;19.942;2022-10-30T13:22:07;22.80;;;12.50;;
60919;SDS011;59039;52.108;19.942;2022-10-30T13:27:59;27.80;;;13.90;;
60919;SDS011;59039;52.108;19.942;2022-10-30T13:30:44;22.50;;;14.20;;
60919;SDS011;59039;52.108;19.942;2022-10-30T13:33:27;29.60;;;15.90;;
60919;SDS011;59039;52.108;19.942;2022-10-30T13:36:14;26.10;;;15.10;;
60919;SDS011;59039;52.108;19.942;2022-10-30T13:39:13;26.20;;;13.60;;
60919;SDS011;59039;52.108;19.942;2022-10-30T13:41:58;23.80;;;15.30;;
60919;SDS011;59039;52.108;19.942;2022-10-30T13:52:35;25.70;;;14.80;;
60919;SDS011;59039;52.108;19.942;2022-10-30T14:00:27;24.40;;;12.80;;
60919;SDS011;59039;52.108;19.942;2022-10-30T14:03:10;27.10;;;16.80;;
60919;SDS011;59039;52.108;19.942;2022-10-30T14:05:46;31.00;;;18.00;;
60919;SDS011;59039;52.108;19.942;2022-10-30T14:10:48;31.30;;;18.10;;
60919;SDS011;59039;52.108;19.942;2022-10-30T14:15:53;26.40;;;15.20;;
60919;SDS011;59039;52.108;19.942;2022-10-30T14:18:23;27.70;;;15.70;;
60919;SDS011;59039;52.108;19.942;2022-10-30T14:20:50;42.60;;;20.20;;
60919;SDS011;59039;52.108;19.942;2022-10-30T14:23:24;40.50;;;21.50;;
60919;SDS011;59039;52.108;19.942;2022-10-30T14:28:26;31.20;;;16.70;;
60919;SDS011;59039;52.108;19.942;2022-10-30T14:31:31;28.90;;;13.90;;
60919;SDS011;59039;52.108;19.942;2022-10-30T14:33:56;22.70;;;14.10;;
60919;SDS011;59039;52.108;19.942;2022-10-30T14:41:36;28.00;;;16.70;;
60919;SDS011;59039;52.108;19.942;2022-10-30T14:47:20;28.00;;;14.60;;
60919;SDS011;59039;52.108;19.942;2022-10-30T14:50:16;22.70;;;14.20;;
60919;SDS011;59039;52.108;19.942;2022-10-30T14:58:34;28.40;;;15.30;;
60919;SDS011;59039;52.108;19.942;2022-10-30T15:06:33;29.90;;;16.70;;
60919;SDS011;59039;52.108;19.942;2022-10-30T15:09:09;28.70;;;16.20;;
60919;SDS011;59039;52.108;19.942;2022-10-30T15:14:59;33.20;;;16.70;;
60919;SDS011;59039;52.108;19.942;2022-10-30T15:17:54;29.40;;;15.60;;
60919;SDS011;59039;52.108;19.942;2022-10-30T15:20:04;30.20;;;15.70;;
60919;SDS011;59039;52.108;19.942;2022-10-30T15:22:37;35.70;;;19.10;;
60919;SDS011;59039;52.108;19.942;2022-10-30T15:25:03;57.20;;;33.70;;
60919;SDS011;59039;52.108;19.942;2022-10-30T15:27:37;58.10;;;31.70;;
60919;SDS011;59039;52.108;19.942;2022-10-30T15:30:13;37.70;;;21.00;;
60919;SDS011;59039;52.108;19.942;2022-10-30T15:32:41;29.20;;;16.40;;
60919;SDS011;59039;52.108;19.942;2022-10-30T15:35:12;29.20;;;17.40;;
60919;SDS011;59039;52.108;19.942;2022-10-30T15:37:54;27.90;;;15.40;;
60919;SDS011;59039;52.108;19.942;2022-10-30T15:40:30;42.90;;;23.40;;
60919;SDS011;59039;52.108;19.942;2022-10-30T15:42:57;43.30;;;26.90;;
60919;SDS011;59039;52.108;19.942;2022-10-30T15:45:28;47.70;;;26.00;;
60919;SDS011;59039;52.108;19.942;2022-10-30T15:47:59;38.80;;;22.90;;
60919;SDS011;59039;52.108;19.942;2022-10-30T15:50:29;34.80;;;22.30;;
60919;SDS011;59039;52.108;19.942;2022-10-30T15:52:55;35.70;;;21.00;;
60919;SDS011;59039;52.108;19.942;2022-10-30T15:56:18;36.60;;;22.20;;
60919;SDS011;59039;52.108;19.942;2022-10-30T15:58:50;38.70;;;22.40;;
60919;SDS011;59039;52.108;19.942;2022-10-30T16:01:24;33.80;;;19.60;;
60919;SDS011;59039;52.108;19.942;2022-10-30T16:03:55;31.30;;;19.00;;
60919;SDS011;59039;52.108;19.942;2022-10-30T16:06:25;34.50;;;20.20;;
60919;SDS011;59039;52.108;19.942;2022-10-30T16:08:53;40.90;;;22.40;;
60919;SDS011;59039;52.108;19.942;2022-10-30T16:11:18;40.50;;;23.10;;
60919;SDS011;59039;52.108;19.942;2022-10-30T16:13:44;50.40;;;26.70;;
60919;SDS011;59039;52.108;19.942;2022-10-30T16:16:11;54.40;;;31.70;;
60919;SDS011;59039;52.108;19.942;2022-10-30T16:18:40;59.40;;;35.10;;
60919;SDS011;59039;52.108;19.942;2022-10-30T16:21:07;65.60;;;38.10;;
60919;SDS011;59039;52.108;19.942;2022-10-30T16:23:40;62.20;;;36.40;;
60919;SDS011;59039;52.108;19.942;2022-10-30T16:26:23;78.40;;;40.50;;
60919;SDS011;59039;52.108;19.942;2022-10-30T16:28:50;63.60;;;36.00;;
60919;SDS011;59039;52.108;19.942;2022-10-30T16:31:15;64.90;;;37.30;;